Terminal Aerodrome Forecast
Issued by NWS

Home | Current Version | Previous Version | Text Only | Print | Product List | Glossary On
Versions: 1 2 3 4 5 6 7 8 9 10 11 12 13 14 15 16 17 18 19
000
FTUS44 KSJT 032300
TAFJCT
TAF
KJCT 032320Z 0400/0424 16008KT P6SM SCT060
     FM040800 16005KT P6SM OVC015
     FM041800 17008G14KT P6SM BKN250=

USA.gov is the U.S. government's official web portal to all federal, state and local government web resources and services.